createdAt,value
2022-08-05T00:00:33.290Z,988.1
2022-08-05T00:01:27.828Z,988.1
2022-08-05T00:02:22.858Z,988.1
2022-08-05T00:03:31.689Z,988.1
2022-08-05T00:04:27.230Z,988.1
2022-08-05T00:06:03.153Z,988.1
2022-08-05T00:06:32.259Z,988.1
2022-08-05T00:07:59.697Z,988.1
2022-08-05T00:08:34.797Z,988.1
2022-08-05T00:09:19.843Z,988.1
2022-08-05T00:10:30.239Z,988.0
2022-08-05T00:11:34.819Z,988.0
2022-08-05T00:12:22.998Z,988.0
2022-08-05T00:13:38.715Z,988.0
2022-08-05T00:14:31.585Z,988.0
2022-08-05T00:15:55.300Z,988.0
2022-08-05T00:16:35.379Z,988.0
2022-08-05T00:17:37.213Z,988.0
2022-08-05T00:18:28.807Z,988.0
2022-08-05T00:19:23.463Z,988.0
2022-08-05T00:20:22.266Z,988.0
2022-08-05T00:21:36.485Z,988.0
2022-08-05T00:22:23.993Z,988.1
2022-08-05T00:23:45.541Z,988.1
2022-08-05T00:24:42.883Z,988.1
2022-08-05T00:25:28.057Z,988.1
2022-08-05T00:26:22.496Z,988.1
2022-08-05T00:27:36.104Z,988.1
2022-08-05T00:28:36.757Z,988.1
2022-08-05T00:29:32.947Z,988.1
2022-08-05T00:30:29.006Z,988.1
2022-08-05T00:31:53.458Z,988.1
2022-08-05T00:32:25.991Z,988.1
2022-08-05T00:34:54.423Z,988.1
2022-08-05T00:34:56.659Z,988.1
2022-08-05T00:35:07.645Z,988.1
2022-08-05T00:35:33.417Z,988.1
2022-08-05T00:37:12.782Z,988.1
2022-08-05T00:37:27.396Z,988.1
2022-08-05T00:38:28.876Z,988.1
2022-08-05T00:39:29.382Z,988.1
2022-08-05T00:40:26.886Z,988.1
2022-08-05T00:41:51.460Z,988.1
2022-08-05T00:42:31.836Z,988.1
2022-08-05T00:43:23.889Z,988.1
2022-08-05T00:44:20.850Z,988.1
2022-08-05T00:45:28.308Z,988.1
2022-08-05T00:46:42.456Z,988.1
2022-08-05T00:47:22.054Z,988.1
2022-08-05T00:48:36.335Z,988.1
2022-08-05T00:49:21.705Z,988.1
2022-08-05T00:50:25.521Z,988.1
2022-08-05T00:51:51.258Z,988.1
2022-08-05T00:52:29.748Z,988.1
2022-08-05T00:53:45.454Z,988.1
2022-08-05T00:54:21.909Z,988.1
2022-08-05T00:55:42.739Z,988.1
2022-08-05T00:56:23.822Z,988.1
2022-08-05T00:57:38.116Z,988.0
2022-08-05T00:58:19.988Z,988.0
2022-08-05T00:59:34.737Z,988.0
2022-08-05T01:00:34.615Z,988.0
2022-08-05T01:01:42.073Z,988.0
2022-08-05T01:03:01.684Z,988.0
2022-08-05T01:03:36.368Z,988.0
2022-08-05T01:30:34.092Z,988.0
2022-08-05T01:31:30.162Z,988.0
2022-08-05T01:32:29.217Z,988.0
2022-08-05T01:33:37.642Z,988.0
2022-08-05T01:34:35.889Z,988.0
2022-08-05T01:35:50.678Z,988.0
2022-08-05T01:58:12.659Z,988.1
2022-08-05T01:58:12.768Z,988.1
2022-08-05T01:58:15.614Z,988.1
2022-08-05T01:58:45.256Z,988.1
2022-08-05T01:59:30.523Z,988.1
2022-08-05T02:00:30.469Z,988.1
2022-08-05T02:01:23.331Z,988.1
2022-08-05T02:02:32.545Z,988.1
2022-08-05T02:03:31.991Z,988.1
2022-08-05T02:04:25.487Z,988.1
2022-08-05T02:05:23.577Z,988.1
2022-08-05T02:06:38.151Z,988.1
2022-08-05T02:07:25.212Z,988.1
2022-08-05T02:08:29.677Z,988.1
2022-08-05T02:09:34.781Z,988.1
2022-08-05T02:10:28.607Z,988.1
2022-08-05T02:11:33.099Z,988.1
2022-08-05T02:12:25.390Z,988.1
2022-08-05T02:13:27.889Z,988.1
2022-08-05T02:14:22.113Z,988.1
2022-08-05T02:15:22.313Z,988.1
2022-08-05T02:16:25.394Z,988.1
2022-08-05T02:18:28.085Z,988.1
2022-08-05T02:18:34.865Z,988.1
2022-08-05T02:18:35.486Z,988.1
2022-08-05T02:19:25.286Z,988.1
2022-08-05T02:20:28.719Z,988.1
2022-08-05T02:21:27.681Z,988.0
2022-08-05T02:22:26.503Z,988.0
2022-08-05T02:23:22.244Z,988.0
2022-08-05T02:24:28.505Z,988.0
2022-08-05T02:25:23.649Z,988.0
2022-08-05T02:26:31.629Z,988.0
2022-08-05T02:27:30.100Z,988.0
2022-08-05T02:28:29.218Z,988.0
2022-08-05T02:29:21.467Z,988.0
2022-08-05T02:30:23.861Z,988.0
2022-08-05T02:31:29.013Z,988.0
2022-08-05T02:32:24.187Z,988.0
2022-08-05T02:33:38.105Z,988.0
2022-08-05T02:34:28.079Z,988.0
2022-08-05T02:35:28.321Z,988.0
2022-08-05T02:36:23.198Z,988.0
2022-08-05T02:37:31.996Z,988.0
2022-08-05T02:38:42.824Z,988.0
2022-08-05T02:39:22.005Z,988.0
2022-08-05T02:40:35.126Z,988.0
2022-08-05T02:41:22.921Z,988.0
2022-08-05T02:42:30.712Z,988.0
2022-08-05T02:43:22.097Z,988.0
2022-08-05T02:44:29.382Z,988.0
2022-08-05T02:45:51.529Z,988.0
2022-08-05T02:46:27.703Z,988.0
2022-08-05T02:47:58.602Z,988.0
2022-08-05T02:48:29.507Z,988.0
2022-08-05T02:49:23.672Z,988.0
2022-08-05T02:50:21.734Z,988.0
2022-08-05T02:52:03.122Z,988.0
2022-08-05T02:52:29.475Z,988.0
2022-08-05T02:53:21.669Z,987.9
2022-08-05T02:54:34.955Z,987.9
2022-08-05T02:55:54.923Z,988.0
2022-08-05T02:56:23.546Z,988.0
2022-08-05T02:58:10.620Z,987.9
2022-08-05T02:58:30.509Z,987.9
2022-08-05T02:59:27.095Z,987.9
2022-08-05T03:00:22.409Z,987.9
2022-08-05T03:01:25.225Z,987.9
2022-08-05T03:02:33.016Z,987.9
2022-08-05T03:03:24.435Z,987.9
2022-08-05T03:04:19.733Z,987.9
2022-08-05T03:06:54.786Z,987.9
2022-08-05T03:06:55.220Z,987.9
2022-08-05T03:06:59.739Z,987.9
2022-08-05T03:08:00.435Z,987.9
2022-08-05T03:08:31.840Z,987.9
2022-08-05T03:09:27.139Z,987.9
2022-08-05T03:10:22.067Z,987.9
2022-08-05T03:11:56.854Z,987.9
2022-08-05T03:12:29.908Z,987.9
2022-08-05T03:13:51.682Z,987.9
2022-08-05T03:14:22.237Z,987.9
2022-08-05T03:15:33.311Z,987.9
2022-08-05T03:16:29.239Z,987.9
2022-08-05T03:17:24.776Z,987.9
2022-08-05T03:18:24.677Z,988.0
2022-08-05T03:19:34.009Z,987.9
2022-08-05T03:20:27.481Z,987.9
2022-08-05T03:21:22.886Z,988.0
2022-08-05T03:22:32.183Z,988.0
2022-08-05T03:23:31.560Z,988.0
2022-08-05T03:24:29.997Z,988.0
2022-08-05T03:25:33.617Z,988.0
2022-08-05T03:26:32.229Z,988.0
2022-08-05T03:27:22.204Z,988.0
2022-08-05T03:28:23.097Z,988.0
2022-08-05T03:29:44.661Z,988.1
2022-08-05T03:30:30.261Z,988.1
2022-08-05T03:31:55.961Z,988.1
2022-08-05T03:32:21.186Z,988.1
2022-08-05T03:33:42.254Z,988.1
2022-08-05T03:34:25.692Z,988.1
2022-08-05T03:35:25.862Z,988.1
2022-08-05T03:36:32.792Z,988.1
2022-08-05T03:37:29.588Z,988.1
2022-08-05T03:38:32.772Z,988.1
2022-08-05T03:39:27.295Z,988.1
2022-08-05T03:40:33.732Z,988.1
2022-08-05T03:41:33.244Z,988.1
2022-08-05T03:42:22.547Z,988.1
2022-08-05T03:44:09.598Z,988.1
2022-08-05T03:44:23.616Z,988.2
2022-08-05T03:45:23.877Z,988.1
2022-08-05T03:46:23.890Z,988.1
2022-08-05T03:47:21.422Z,988.2
2022-08-05T03:48:26.590Z,988.2
2022-08-05T03:49:24.256Z,988.2
2022-08-05T03:50:26.765Z,988.2
2022-08-05T03:52:36.556Z,988.2
2022-08-05T03:52:37.323Z,988.2
2022-08-05T03:55:07.247Z,988.2
2022-08-05T03:55:50.066Z,988.2
2022-08-05T03:56:09.850Z,988.2
2022-08-05T03:56:26.910Z,988.2
2022-08-05T03:56:35.174Z,988.2
2022-08-05T03:56:36.058Z,988.3
2022-08-05T03:56:36.239Z,988.3
2022-08-05T03:57:29.044Z,988.3
2022-08-05T03:58:29.186Z,988.3
2022-08-05T03:59:47.215Z,988.3
2022-08-05T04:00:22.666Z,988.3
2022-08-05T04:01:25.540Z,988.3
2022-08-05T04:02:38.515Z,988.3
2022-08-05T04:03:28.594Z,988.3
2022-08-05T04:04:30.380Z,988.3
2022-08-05T04:05:28.269Z,988.3
2022-08-05T04:06:23.728Z,988.3
2022-08-05T04:07:24.958Z,988.3
2022-08-05T04:08:36.770Z,988.3
2022-08-05T04:09:28.399Z,988.3
2022-08-05T04:10:23.516Z,988.3
2022-08-05T04:11:47.513Z,988.3
2022-08-05T04:12:25.588Z,988.3
2022-08-05T04:13:23.568Z,988.4
2022-08-05T04:14:30.280Z,988.4
2022-08-05T04:15:24.434Z,988.4
2022-08-05T04:16:32.501Z,988.4
2022-08-05T04:17:25.909Z,988.4
2022-08-05T04:18:28.259Z,988.4
2022-08-05T04:19:28.214Z,988.4
2022-08-05T04:20:25.239Z,988.5
2022-08-05T04:22:05.306Z,988.5
2022-08-05T04:22:28.175Z,988.5
2022-08-05T04:23:58.367Z,988.5
2022-08-05T04:24:22.865Z,988.5
2022-08-05T04:25:24.234Z,988.5
2022-08-05T04:26:21.497Z,988.5
2022-08-05T04:27:41.943Z,988.5
2022-08-05T04:28:19.470Z,988.5
2022-08-05T04:29:23.077Z,988.5
2022-08-05T04:30:27.296Z,988.5
2022-08-05T04:31:38.388Z,988.5
2022-08-05T04:32:31.960Z,988.5
2022-08-05T04:33:54.697Z,988.6
2022-08-05T04:34:32.803Z,988.6
2022-08-05T04:35:22.869Z,988.6
2022-08-05T04:36:44.723Z,988.6
2022-08-05T04:38:01.004Z,988.6
2022-08-05T04:38:22.036Z,988.6
2022-08-05T04:39:32.220Z,988.6
2022-08-05T04:40:22.610Z,988.7
2022-08-05T04:41:36.570Z,988.7
2022-08-05T04:42:19.983Z,988.7
2022-08-05T04:43:31.816Z,988.7
2022-08-05T04:44:24.389Z,988.7
2022-08-05T04:45:47.832Z,988.7
2022-08-05T04:46:28.677Z,988.7
2022-08-05T04:47:28.760Z,988.7
2022-08-05T04:48:27.252Z,988.7
2022-08-05T04:49:24.707Z,988.7
2022-08-05T04:50:34.473Z,988.8
2022-08-05T04:51:30.506Z,988.8
2022-08-05T04:52:22.013Z,988.8
2022-08-05T04:53:35.634Z,988.9
2022-08-05T04:54:27.724Z,988.9
2022-08-05T04:56:14.874Z,988.9
2022-08-05T04:56:34.488Z,988.9
2022-08-05T04:56:37.499Z,988.9
2022-08-05T04:57:28.747Z,988.9
2022-08-05T04:58:27.993Z,989.0
2022-08-05T04:59:33.581Z,989.0
2022-08-05T05:00:33.179Z,989.0
2022-08-05T05:02:08.117Z,989.0
2022-08-05T05:02:37.282Z,989.0
2022-08-05T05:02:43.336Z,989.0
2022-08-05T05:03:23.689Z,989.0
2022-08-05T05:04:31.578Z,989.0
2022-08-05T05:05:28.618Z,989.0
2022-08-05T05:06:38.666Z,989.0
2022-08-05T05:07:35.617Z,989.0
2022-08-05T05:08:45.314Z,989.0
2022-08-05T05:09:24.654Z,989.0
2022-08-05T05:10:23.739Z,989.0
2022-08-05T05:11:41.388Z,989.0
2022-08-05T05:12:27.312Z,989.0
2022-08-05T05:13:21.718Z,989.0
2022-08-05T05:14:31.593Z,989.0
2022-08-05T05:15:59.376Z,989.0
2022-08-05T05:16:23.583Z,989.0
2022-08-05T05:17:23.898Z,989.0
2022-08-05T05:18:31.004Z,989.0
2022-08-05T05:19:27.446Z,989.1
2022-08-05T05:20:22.816Z,989.0
2022-08-05T05:21:33.176Z,989.0
2022-08-05T05:22:28.028Z,989.0
2022-08-05T05:23:38.834Z,989.1
2022-08-05T05:24:19.691Z,989.1
2022-08-05T05:25:32.618Z,989.1
2022-08-05T05:26:28.863Z,989.1
2022-08-05T05:27:22.672Z,989.1
2022-08-05T05:28:37.431Z,989.1
2022-08-05T05:30:03.278Z,989.1
2022-08-05T05:30:29.051Z,989.1
2022-08-05T05:31:22.666Z,989.2
2022-08-05T05:32:29.933Z,989.2
2022-08-05T05:33:23.290Z,989.2
2022-08-05T05:34:26.731Z,989.2
2022-08-05T05:35:37.598Z,989.2
2022-08-05T05:36:28.321Z,989.2
2022-08-05T05:37:37.519Z,989.2
2022-08-05T05:38:22.824Z,989.1
2022-08-05T05:39:34.379Z,989.1
2022-08-05T05:40:27.532Z,989.1
2022-08-05T05:41:24.990Z,989.1
2022-08-05T05:42:25.309Z,989.1
2022-08-05T05:43:58.345Z,989.1
2022-08-05T05:44:37.007Z,989.1
2022-08-05T05:45:20.149Z,989.1
2022-08-05T05:46:29.868Z,989.1
2022-08-05T05:47:30.415Z,989.2
2022-08-05T05:48:27.276Z,989.2
2022-08-05T05:49:26.065Z,989.2
2022-08-05T05:50:27.826Z,989.2
2022-08-05T05:51:23.935Z,989.2
2022-08-05T05:52:28.363Z,989.2
2022-08-05T05:53:23.682Z,989.2
2022-08-05T05:54:49.741Z,989.3
2022-08-05T05:55:25.566Z,989.3
2022-08-05T05:56:32.602Z,989.3
2022-08-05T05:57:27.763Z,989.3
2022-08-05T05:58:30.349Z,989.3
2022-08-05T05:59:22.514Z,989.3
2022-08-05T06:00:19.587Z,989.3
2022-08-05T06:01:28.338Z,989.3
2022-08-05T06:02:32.362Z,989.4
2022-08-05T06:03:54.144Z,989.4
2022-08-05T06:04:27.671Z,989.4
2022-08-05T06:05:25.903Z,989.4
2022-08-05T06:06:37.041Z,989.4
2022-08-05T06:07:25.121Z,989.4
2022-08-05T06:08:39.666Z,989.4
2022-08-05T06:09:26.490Z,989.4
2022-08-05T06:10:21.768Z,989.4
2022-08-05T06:11:23.659Z,989.4
2022-08-05T06:12:27.799Z,989.4
2022-08-05T06:13:19.857Z,989.4
2022-08-05T06:14:27.905Z,989.4
2022-08-05T06:15:25.527Z,989.4
2022-08-05T06:16:36.813Z,989.4
2022-08-05T06:16:37.726Z,989.5
2022-08-05T06:17:53.136Z,989.5
2022-08-05T06:18:31.209Z,989.4
2022-08-05T06:19:26.269Z,989.4
2022-08-05T06:20:21.644Z,989.4
2022-08-05T06:21:37.182Z,989.5
2022-08-05T06:22:26.025Z,989.5
2022-08-05T06:23:23.137Z,989.5
2022-08-05T06:24:46.759Z,989.5
2022-08-05T06:26:12.835Z,989.5
2022-08-05T06:26:25.058Z,989.5
2022-08-05T06:28:11.763Z,989.5
2022-08-05T06:28:27.025Z,989.5
2022-08-05T06:28:31.469Z,989.5
2022-08-05T06:29:49.641Z,989.5
2022-08-05T06:30:23.774Z,989.5
2022-08-05T06:31:34.969Z,989.5
2022-08-05T06:32:30.713Z,989.5
2022-08-05T06:33:33.261Z,989.5
2022-08-05T06:34:23.399Z,989.5
2022-08-05T06:36:03.669Z,989.6
2022-08-05T06:36:26.053Z,989.6
2022-08-05T06:37:57.895Z,989.6
2022-08-05T06:38:36.170Z,989.6
2022-08-05T06:39:29.545Z,989.6
2022-08-05T06:40:27.855Z,989.6
2022-08-05T06:41:21.022Z,989.6
2022-08-05T06:42:39.767Z,989.6
2022-08-05T06:43:58.840Z,989.6
2022-08-05T06:44:23.486Z,989.6
2022-08-05T06:45:43.965Z,989.7
2022-08-05T06:46:30.026Z,989.7
2022-08-05T06:47:30.367Z,989.7
2022-08-05T06:48:53.408Z,989.7
2022-08-05T06:48:58.968Z,989.7
2022-08-05T06:50:02.084Z,989.7
2022-08-05T06:50:33.660Z,989.7
2022-08-05T06:51:29.309Z,989.7
2022-08-05T06:52:38.282Z,989.7
2022-08-05T06:53:32.450Z,989.7
2022-08-05T06:54:25.866Z,989.7
2022-08-05T06:55:27.303Z,989.7
2022-08-05T06:56:25.728Z,989.7
2022-08-05T06:57:57.760Z,989.7
2022-08-05T06:58:35.226Z,989.7
2022-08-05T06:59:38.755Z,989.7
2022-08-05T07:00:29.659Z,989.7
2022-08-05T07:01:32.595Z,989.7
2022-08-05T07:02:22.850Z,989.7
2022-08-05T07:03:32.827Z,989.7
2022-08-05T07:04:25.840Z,989.7
2022-08-05T07:05:37.387Z,989.7
2022-08-05T07:06:21.744Z,989.7
2022-08-05T07:07:35.465Z,989.7
2022-08-05T07:08:28.566Z,989.7
2022-08-05T07:09:32.412Z,989.7
2022-08-05T07:10:32.282Z,989.8
2022-08-05T07:11:25.532Z,989.8
2022-08-05T07:12:26.469Z,989.8
2022-08-05T07:13:57.089Z,989.8
2022-08-05T07:14:32.284Z,989.8
2022-08-05T07:15:34.073Z,989.7
2022-08-05T07:18:08.339Z,989.8
2022-08-05T07:18:08.422Z,989.8
2022-08-05T07:18:14.667Z,989.8
2022-08-05T07:18:33.285Z,989.8
2022-08-05T07:20:05.787Z,989.8
2022-08-05T07:20:36.286Z,989.8
2022-08-05T07:21:39.940Z,989.8
2022-08-05T07:22:28.169Z,989.8
2022-08-05T07:23:26.100Z,989.8
2022-08-05T07:24:35.186Z,989.8
2022-08-05T07:25:55.167Z,989.8
2022-08-05T07:26:25.732Z,989.8
2022-08-05T07:27:22.832Z,989.8
2022-08-05T07:28:32.339Z,989.8
2022-08-05T07:30:25.575Z,989.8
2022-08-05T07:30:32.820Z,989.8
2022-08-05T07:31:40.768Z,989.9
2022-08-05T07:32:28.034Z,989.9
2022-08-05T07:33:37.184Z,989.9
2022-08-05T07:34:28.562Z,989.8
2022-08-05T07:36:03.791Z,989.8
2022-08-05T07:36:23.795Z,989.8
2022-08-05T07:37:21.633Z,989.9
2022-08-05T07:38:34.661Z,989.9
2022-08-05T07:40:26.557Z,989.9
2022-08-05T07:40:34.396Z,989.9
2022-08-05T07:40:35.728Z,989.8
2022-08-05T07:42:09.649Z,989.8
2022-08-05T07:42:33.588Z,989.8
2022-08-05T07:43:24.323Z,989.8
2022-08-05T07:44:21.812Z,989.8
2022-08-05T07:45:31.314Z,989.8
2022-08-05T07:46:33.662Z,989.9
2022-08-05T07:47:21.785Z,989.8
2022-08-05T07:49:03.505Z,989.8
2022-08-05T07:49:21.589Z,989.8
2022-08-05T07:50:29.009Z,989.8
2022-08-05T07:51:37.399Z,989.8
2022-08-05T07:52:21.886Z,989.8
2022-08-05T07:53:36.946Z,989.8
2022-08-05T07:54:23.339Z,989.8
2022-08-05T07:55:44.283Z,989.8
2022-08-05T07:57:00.612Z,989.8
2022-08-05T07:57:51.175Z,989.8
2022-08-05T07:58:57.568Z,989.8
2022-08-05T07:59:38.716Z,989.8
2022-08-05T08:00:27.353Z,989.8
2022-08-05T08:01:23.366Z,989.8
2022-08-05T08:03:15.135Z,989.8
2022-08-05T08:03:44.266Z,989.8
2022-08-05T08:04:37.380Z,989.8
2022-08-05T08:05:22.203Z,989.8
2022-08-05T08:06:28.137Z,989.8
2022-08-05T08:07:28.441Z,989.8
2022-08-05T08:08:26.708Z,989.8
2022-08-05T08:09:41.056Z,989.8
2022-08-05T08:10:23.842Z,989.7
2022-08-05T08:11:50.268Z,989.7
2022-08-05T08:12:36.993Z,989.7
2022-08-05T08:13:21.950Z,989.7
2022-08-05T08:14:33.286Z,989.7
2022-08-05T08:16:33.681Z,989.7
2022-08-05T08:16:35.167Z,989.7
2022-08-05T08:16:53.330Z,989.7
2022-08-05T08:17:27.800Z,989.7
2022-08-05T08:18:28.635Z,989.7
2022-08-05T08:20:21.453Z,989.7
2022-08-05T08:20:59.849Z,989.7
2022-08-05T08:21:09.358Z,989.7
2022-08-05T08:21:20.015Z,989.7
2022-08-05T08:22:23.648Z,989.7
2022-08-05T08:24:01.239Z,989.7
2022-08-05T08:24:45.958Z,989.7
2022-08-05T08:25:26.875Z,989.7
2022-08-05T08:26:29.539Z,989.7
2022-08-05T08:27:22.574Z,989.6
2022-08-05T08:28:36.774Z,989.6
2022-08-05T08:30:05.466Z,989.6
2022-08-05T08:30:47.452Z,989.7
2022-08-05T08:31:32.996Z,989.7
2022-08-05T08:32:28.212Z,989.7
2022-08-05T08:33:21.917Z,989.7
2022-08-05T08:34:30.706Z,989.6
2022-08-05T08:35:26.773Z,989.6
2022-08-05T08:36:40.212Z,989.6
2022-08-05T08:37:36.629Z,989.7
2022-08-05T08:38:35.338Z,989.7
2022-08-05T08:39:22.208Z,989.7
2022-08-05T08:40:19.807Z,989.7
2022-08-05T08:41:50.921Z,989.7
2022-08-05T08:42:46.935Z,989.7
2022-08-05T08:45:18.432Z,989.7
2022-08-05T08:45:23.924Z,989.7
2022-08-05T08:45:29.740Z,989.7
2022-08-05T08:45:30.854Z,989.7
2022-08-05T08:46:23.843Z,989.7
2022-08-05T08:47:47.699Z,989.6
2022-08-05T08:48:41.658Z,989.6
2022-08-05T08:50:22.760Z,989.7
2022-08-05T08:51:03.310Z,989.7
2022-08-05T08:52:02.087Z,989.7
2022-08-05T08:52:13.444Z,989.7
2022-08-05T08:52:30.704Z,989.6
2022-08-05T08:53:28.868Z,989.6
2022-08-05T08:54:20.206Z,989.7
2022-08-05T08:56:01.979Z,989.7
2022-08-05T08:56:28.042Z,989.7
2022-08-05T08:57:25.318Z,989.7
2022-08-05T08:58:43.231Z,989.7
2022-08-05T08:59:33.619Z,989.6
2022-08-05T09:00:24.539Z,989.6
2022-08-05T09:01:20.044Z,989.6
2022-08-05T09:02:29.903Z,989.6
2022-08-05T09:03:40.446Z,989.6
2022-08-05T09:04:30.404Z,989.6
2022-08-05T09:05:38.308Z,989.6
2022-08-05T09:06:27.889Z,989.6
2022-08-05T09:07:28.464Z,989.6
2022-08-05T09:08:27.289Z,989.6
2022-08-05T09:09:34.861Z,989.5
2022-08-05T09:10:29.518Z,989.5
2022-08-05T09:11:53.397Z,989.5
2022-08-05T09:12:27.911Z,989.5
2022-08-05T09:13:31.407Z,989.5
2022-08-05T09:14:58.724Z,989.5
2022-08-05T09:15:24.060Z,989.5
2022-08-05T09:16:30.444Z,989.6
2022-08-05T09:17:42.358Z,989.5
2022-08-05T09:18:23.514Z,989.5
2022-08-05T09:19:36.607Z,989.5
2022-08-05T09:20:20.801Z,989.5
2022-08-05T09:22:21.974Z,989.5
2022-08-05T09:22:31.893Z,989.5
2022-08-05T09:23:43.365Z,989.5
2022-08-05T09:24:27.667Z,989.5
2022-08-05T09:25:24.373Z,989.4
2022-08-05T09:26:23.100Z,989.5
2022-08-05T09:28:04.564Z,989.4
2022-08-05T09:28:31.895Z,989.4
2022-08-05T09:29:30.892Z,989.4
2022-08-05T09:30:35.561Z,989.4
2022-08-05T09:32:39.241Z,989.4
2022-08-05T09:32:41.270Z,989.4
2022-08-05T09:32:46.381Z,989.4
2022-08-05T09:33:24.152Z,989.4
2022-08-05T09:34:31.568Z,989.4
2022-08-05T09:35:27.037Z,989.4
2022-08-05T09:36:20.121Z,989.4
2022-08-05T09:38:12.083Z,989.4
2022-08-05T09:38:29.418Z,989.4
2022-08-05T09:39:23.119Z,989.4
2022-08-05T09:40:28.559Z,989.3
2022-08-05T09:41:27.738Z,989.3
2022-08-05T09:42:28.674Z,989.3
2022-08-05T09:43:40.738Z,989.3
2022-08-05T09:44:26.106Z,989.3
2022-08-05T09:46:07.082Z,989.3
2022-08-05T09:46:27.629Z,989.3
2022-08-05T09:47:46.572Z,989.3
2022-08-05T09:48:31.456Z,989.3
2022-08-05T09:49:40.380Z,989.3
2022-08-05T09:50:38.054Z,989.3
2022-08-05T09:51:26.843Z,989.3
2022-08-05T09:52:28.734Z,989.3
2022-08-05T09:53:53.886Z,989.3
2022-08-05T09:54:36.280Z,989.3
2022-08-05T09:55:56.562Z,989.3
2022-08-05T09:56:26.816Z,989.3
2022-08-05T09:57:23.689Z,989.2
2022-08-05T09:58:20.361Z,989.2
2022-08-05T09:59:21.432Z,989.2
2022-08-05T10:00:22.060Z,989.2
2022-08-05T10:01:45.847Z,989.2
2022-08-05T10:02:27.750Z,989.2
2022-08-05T10:03:56.726Z,989.1
2022-08-05T10:04:19.786Z,989.1
2022-08-05T10:05:26.829Z,989.1
2022-08-05T10:06:26.182Z,989.1
2022-08-05T10:08:10.421Z,989.1
2022-08-05T10:08:37.509Z,989.1
2022-08-05T10:09:29.614Z,989.1
2022-08-05T10:10:28.122Z,989.1
2022-08-05T10:11:20.305Z,989.1
2022-08-05T10:12:33.740Z,989.0
2022-08-05T10:13:24.129Z,989.0
2022-08-05T10:14:22.684Z,989.0
2022-08-05T10:15:35.249Z,989.0
2022-08-05T10:16:28.702Z,989.0
2022-08-05T10:17:37.641Z,989.0
2022-08-05T10:18:20.448Z,989.0
2022-08-05T10:20:03.159Z,989.0
2022-08-05T10:20:28.335Z,989.0
2022-08-05T10:21:22.186Z,989.0
2022-08-05T10:22:29.763Z,989.0
2022-08-05T10:23:55.479Z,988.9
2022-08-05T10:24:24.978Z,988.9
2022-08-05T10:25:21.591Z,988.9
2022-08-05T10:26:32.683Z,988.9
2022-08-05T10:28:13.635Z,988.9
2022-08-05T10:28:29.627Z,988.9
2022-08-05T10:30:06.719Z,988.9
2022-08-05T10:32:47.266Z,988.9
2022-08-05T10:32:52.054Z,988.9
2022-08-05T10:32:54.286Z,988.9
2022-08-05T10:33:02.805Z,988.9
2022-08-05T10:33:03.361Z,988.9
2022-08-05T10:33:30.652Z,988.9
2022-08-05T10:34:25.594Z,988.8
2022-08-05T10:35:22.251Z,988.8
2022-08-05T10:36:28.216Z,988.8
2022-08-05T10:37:22.258Z,988.8
2022-08-05T10:38:25.288Z,988.8
2022-08-05T10:39:25.061Z,988.8
2022-08-05T10:40:31.606Z,988.8
2022-08-05T10:41:45.235Z,988.8
2022-08-05T10:42:22.783Z,988.7
2022-08-05T10:43:23.219Z,988.7
2022-08-05T10:44:29.721Z,988.7
2022-08-05T10:45:42.214Z,988.7
2022-08-05T10:46:23.867Z,988.7
2022-08-05T10:47:31.254Z,988.7
2022-08-05T10:48:31.508Z,988.7
2022-08-05T10:49:48.635Z,988.7
2022-08-05T10:50:36.141Z,988.7
2022-08-05T10:51:28.956Z,988.6
2022-08-05T10:52:24.959Z,988.6
2022-08-05T10:53:19.954Z,988.6
2022-08-05T10:54:34.978Z,988.6
2022-08-05T10:55:26.502Z,988.6
2022-08-05T10:56:25.889Z,988.6
2022-08-05T10:57:34.297Z,988.6
2022-08-05T10:58:35.723Z,988.6
2022-08-05T11:00:03.195Z,988.6
2022-08-05T11:00:22.659Z,988.6
2022-08-05T11:01:54.619Z,988.6
2022-08-05T11:02:37.705Z,988.6
2022-08-05T11:03:23.327Z,988.6
2022-08-05T11:04:38.591Z,988.5
2022-08-05T11:05:31.568Z,988.6
2022-08-05T11:06:31.199Z,988.6
2022-08-05T11:07:33.267Z,988.6
2022-08-05T11:08:37.170Z,988.6
2022-08-05T11:09:39.051Z,988.6
2022-08-05T11:10:27.615Z,988.5
2022-08-05T11:11:52.440Z,988.5
2022-08-05T11:12:29.437Z,988.5
2022-08-05T11:13:25.040Z,988.5
2022-08-05T11:14:42.826Z,988.5
2022-08-05T11:15:21.437Z,988.5
2022-08-05T11:16:33.836Z,988.5
2022-08-05T11:17:57.969Z,988.5
2022-08-05T11:18:21.758Z,988.5
2022-08-05T11:20:17.397Z,988.5
2022-08-05T11:20:26.135Z,988.5
2022-08-05T11:21:25.500Z,988.4
2022-08-05T11:22:26.610Z,988.4
2022-08-05T11:23:49.826Z,988.4
2022-08-05T11:24:29.959Z,988.4
2022-08-05T11:26:05.552Z,988.4
2022-08-05T11:26:32.372Z,988.4
2022-08-05T11:27:28.669Z,988.3
2022-08-05T11:28:24.064Z,988.4
2022-08-05T11:29:21.402Z,988.4
2022-08-05T11:30:24.014Z,988.4
2022-08-05T11:31:57.500Z,988.4
2022-08-05T11:32:27.820Z,988.4
2022-08-05T11:33:43.830Z,988.4
2022-08-05T11:34:26.258Z,988.4
2022-08-05T11:35:20.197Z,988.3
2022-08-05T11:36:34.229Z,988.3
2022-08-05T11:38:36.849Z,988.3
2022-08-05T11:38:45.642Z,988.3
2022-08-05T11:38:51.921Z,988.3
2022-08-05T11:39:31.877Z,988.3
2022-08-05T11:40:30.575Z,988.3
2022-08-05T11:41:54.476Z,988.3
2022-08-05T11:42:23.236Z,988.3
2022-08-05T11:44:04.819Z,988.3
2022-08-05T11:44:52.844Z,988.2
2022-08-05T11:46:15.411Z,988.2
2022-08-05T11:46:33.281Z,988.2
2022-08-05T11:46:33.899Z,988.2
2022-08-05T11:47:48.854Z,988.1
2022-08-05T11:48:25.085Z,988.1
2022-08-05T11:49:23.838Z,988.1
2022-08-05T11:50:31.132Z,988.1
2022-08-05T11:51:43.971Z,988.0
2022-08-05T11:52:22.952Z,988.0
2022-08-05T11:53:23.809Z,988.0
2022-08-05T11:54:23.659Z,988.0
2022-08-05T11:55:32.047Z,988.0
2022-08-05T11:56:25.359Z,987.9
2022-08-05T11:58:07.923Z,987.9
2022-08-05T11:58:27.755Z,987.9
2022-08-05T11:59:21.983Z,987.9
2022-08-05T12:00:24.901Z,987.8
2022-08-05T12:01:30.965Z,987.8
2022-08-05T12:02:31.451Z,987.8
2022-08-05T12:03:23.970Z,987.8
2022-08-05T12:04:31.688Z,987.8
2022-08-05T12:05:24.858Z,987.8
2022-08-05T12:06:27.050Z,987.8
2022-08-05T12:08:08.384Z,987.8
2022-08-05T12:08:22.435Z,987.8
2022-08-05T12:09:24.828Z,987.8
2022-08-05T12:10:20.072Z,987.8
2022-08-05T12:11:39.970Z,987.8
2022-08-05T12:12:27.311Z,987.8
2022-08-05T12:13:47.904Z,987.7
2022-08-05T12:14:21.720Z,987.7
2022-08-05T12:15:38.671Z,987.7
2022-08-05T12:16:19.615Z,987.7
2022-08-05T12:18:02.879Z,987.7
2022-08-05T12:18:33.168Z,987.7
2022-08-05T12:20:16.846Z,987.7
2022-08-05T12:20:33.446Z,987.7
2022-08-05T12:20:34.073Z,987.6
2022-08-05T12:21:29.789Z,987.6
2022-08-05T12:22:30.435Z,987.6
2022-08-05T12:23:28.726Z,987.6
2022-08-05T12:24:20.442Z,987.6
2022-08-05T12:25:31.311Z,987.6
2022-08-05T12:26:27.021Z,987.6
2022-08-05T12:27:25.365Z,987.6
2022-08-05T12:28:34.126Z,987.7
2022-08-05T12:29:23.477Z,987.7
2022-08-05T12:30:32.344Z,987.7
2022-08-05T12:31:32.710Z,987.7
2022-08-05T12:32:36.282Z,987.7
2022-08-05T12:33:36.768Z,987.7
2022-08-05T12:34:25.958Z,987.6
2022-08-05T12:35:43.275Z,987.6
2022-08-05T12:36:29.350Z,987.6
2022-08-05T12:37:23.023Z,987.6
2022-08-05T12:38:22.300Z,987.6
2022-08-05T12:39:34.513Z,987.6
2022-08-05T12:40:28.678Z,987.6
2022-08-05T12:41:34.525Z,987.7
2022-08-05T12:42:31.994Z,987.7
2022-08-05T12:43:32.520Z,987.7
2022-08-05T12:44:33.006Z,987.7
2022-08-05T12:45:20.443Z,987.6
2022-08-05T12:46:28.059Z,987.6
2022-08-05T12:47:26.544Z,987.6
2022-08-05T12:48:32.212Z,987.6
2022-08-05T12:50:04.815Z,987.6
2022-08-05T12:50:31.485Z,987.5
2022-08-05T12:52:14.065Z,987.5
2022-08-05T12:52:29.547Z,987.5
2022-08-05T12:53:37.041Z,987.4
2022-08-05T12:54:26.798Z,987.4
2022-08-05T12:55:25.198Z,987.4
2022-08-05T12:56:37.418Z,987.4
2022-08-05T12:57:28.190Z,987.4
2022-08-05T12:58:38.672Z,987.4
2022-08-05T12:58:53.742Z,987.4
2022-08-05T12:59:46.434Z,987.4
2022-08-05T13:02:01.594Z,987.4
2022-08-05T13:02:02.594Z,987.4
2022-08-05T13:02:07.445Z,987.4
2022-08-05T13:02:22.157Z,987.4
2022-08-05T13:03:19.893Z,987.3
2022-08-05T13:04:32.822Z,987.3
2022-08-05T13:05:24.726Z,987.3
2022-08-05T13:06:21.656Z,987.3
2022-08-05T13:07:54.761Z,987.3
2022-08-05T13:08:27.553Z,987.4
2022-08-05T13:09:28.096Z,987.4
2022-08-05T13:10:22.853Z,987.3
2022-08-05T13:11:59.740Z,987.3
2022-08-05T13:12:28.552Z,987.3